Time;durP1;ratioP1;P1;durP2;ratioP2;P2;SDS_P1;SDS_P2;PMS_P1;PMS_P2;Temp;Humidity;BMP_temperature;BMP_pressure;BME280_temperature;BME280_humidity;BME280_pressure;Samples;Min_cycle;Max_cycle;Signal;HPM_P1;HPM_P2
2023/01/11 00:00:23;;;;;;;23.93;10.40;;;10.10;99.90;;;;;;5110848;28;20317;-75
2023/01/11 00:03:04;;;;;;;19.07;10.13;;;10.10;99.90;;;;;;5110244;28;20028;-81
2023/01/11 00:05:30;;;;;;;16.35;9.85;;;10.10;99.90;;;;;;5113958;28;20027;-87
2023/01/11 00:07:57;;;;;;;16.57;9.67;;;10.20;99.90;;;;;;5089704;28;20064;-83
2023/01/11 00:10:23;;;;;;;;;;;10.20;99.90;;;;;;5115700;28;20276;-81
2023/01/11 00:12:49;;;;;;;20.58;9.18;;;10.20;99.90;;;;;;5099739;28;19957;-84
2023/01/11 00:15:15;;;;;;;16.90;10.40;;;10.20;99.90;;;;;;5114679;28;20077;-81
2023/01/11 00:17:41;;;;;;;17.55;9.30;;;10.20;99.90;;;;;;5099671;28;20508;-81
2023/01/11 00:20:09;;;;;;;20.87;9.67;;;10.20;99.90;;;;;;5099602;28;20085;-82
2023/01/11 00:22:35;;;;;;;17.33;9.95;;;10.30;99.90;;;;;;5098467;28;20114;-82
2023/01/11 00:25:01;;;;;;;17.17;9.87;;;10.30;99.90;;;;;;5113848;28;20107;-82
2023/01/11 00:27:27;;;;;;;18.13;9.53;;;10.30;99.90;;;;;;5111191;28;20114;-80
2023/01/11 00:29:52;;;;;;;13.33;8.67;;;10.30;99.90;;;;;;5098802;28;20473;-81
2023/01/11 00:32:18;;;;;;;14.97;8.73;;;10.30;99.90;;;;;;5093110;28;20115;-86
2023/01/11 00:34:44;;;;;;;24.58;9.80;;;10.30;99.90;;;;;;5095451;28;20020;-82
2023/01/11 00:37:10;;;;;;;17.67;9.17;;;10.30;99.90;;;;;;5079069;28;20116;-83
2023/01/11 00:39:36;;;;;;;16.53;9.17;;;10.20;99.90;;;;;;5113088;28;20034;-85
2023/01/11 00:50:14;;;;;;;17.98;8.80;;;10.30;99.90;;;;;;5100873;28;20055;-81
2023/01/11 00:52:40;;;;;;;15.40;7.38;;;10.30;99.90;;;;;;5097869;28;20023;-81
2023/01/11 00:55:07;;;;;;;18.20;8.33;;;10.30;99.90;;;;;;5086999;28;20046;-82
2023/01/11 00:57:33;;;;;;;16.05;7.47;;;10.40;99.90;;;;;;5110722;28;20024;-84
2023/01/11 00:59:59;;;;;;;15.03;6.43;;;10.40;99.90;;;;;;5116503;28;20222;-81
2023/01/11 01:02:25;;;;;;;15.57;7.90;;;10.40;99.90;;;;;;5084725;28;20062;-81
2023/01/11 01:04:51;;;;;;;14.60;6.90;;;10.50;99.90;;;;;;5092993;28;20059;-84
2023/01/11 01:07:17;;;;;;;11.87;6.80;;;10.40;99.90;;;;;;5097724;28;20408;-80
2023/01/11 01:09:43;;;;;;;14.23;7.17;;;10.50;99.90;;;;;;5108812;28;20028;-79
2023/01/11 01:12:08;;;;;;;13.17;6.00;;;10.50;99.90;;;;;;5113577;28;20032;-81
2023/01/11 01:14:35;;;;;;;15.00;6.23;;;10.50;99.90;;;;;;5087172;28;20065;-83
2023/01/11 01:17:07;;;;;;;11.43;5.72;;;10.50;99.90;;;;;;5112937;28;20592;-82
2023/01/11 01:19:35;;;;;;;10.13;5.55;;;10.50;99.90;;;;;;5110553;28;20095;-84
2023/01/11 01:22:01;;;;;;;10.73;5.30;;;10.50;99.90;;;;;;5112559;28;20035;-81
2023/01/11 01:24:29;;;;;;;10.20;4.80;;;10.50;99.90;;;;;;5112090;28;20024;-81
2023/01/11 01:26:57;;;;;;;10.27;4.70;;;10.60;99.90;;;;;;5093567;28;20077;-84
2023/01/11 01:29:23;;;;;;;7.78;4.30;;;10.60;99.90;;;;;;5087016;28;20035;-81
2023/01/11 01:31:49;;;;;;;12.00;4.38;;;10.60;99.90;;;;;;5103977;28;20133;-80
2023/01/11 01:34:16;;;;;;;8.98;4.45;;;10.60;99.90;;;;;;5110106;28;20052;-81
2023/01/11 01:36:42;;;;;;;14.93;4.47;;;10.60;99.90;;;;;;5111619;28;20074;-82
2023/01/11 01:39:10;;;;;;;7.55;4.18;;;10.60;99.90;;;;;;5111608;28;20052;-81
2023/01/11 01:41:36;;;;;;;8.50;4.22;;;10.70;99.90;;;;;;5114505;28;20051;-81
2023/01/11 01:44:24;;;;;;;10.85;4.32;;;10.70;99.90;;;;;;5115360;28;20023;-84
2023/01/11 01:46:50;;;;;;;8.70;4.57;;;10.70;99.90;;;;;;5089917;28;20023;-83
2023/01/11 01:49:16;;;;;;;7.05;4.60;;;10.70;99.90;;;;;;5092729;28;20112;-81
2023/01/11 01:51:53;;;;;;;9.50;5.03;;;10.70;99.90;;;;;;5091045;28;20130;-83
2023/01/11 01:54:24;;;;;;;9.50;4.60;;;10.70;99.90;;;;;;5084373;28;20028;-81
2023/01/11 01:56:55;;;;;;;14.80;5.47;;;10.70;99.90;;;;;;5087668;28;20028;-81
2023/01/11 01:59:22;;;;;;;8.80;4.90;;;10.70;99.90;;;;;;5093650;28;20319;-80
2023/01/11 02:01:49;;;;;;;9.43;5.07;;;10.70;99.90;;;;;;5079308;28;20016;-81
2023/01/11 02:04:17;;;;;;;;;;;10.70;99.90;;;;;;5091292;28;20024;-84
2023/01/11 02:06:44;;;;;;;9.77;5.30;;;10.70;99.90;;;;;;5085091;28;19916;-80
2023/01/11 02:09:25;;;;;;;10.23;5.45;;;10.70;99.90;;;;;;5092201;28;20085;-80
2023/01/11 02:11:51;;;;;;;10.95;5.70;;;10.70;99.90;;;;;;5080574;28;20031;-81
2023/01/11 02:14:19;;;;;;;17.48;6.50;;;10.80;99.90;;;;;;5092903;28;20028;-81
2023/01/11 02:16:45;;;;;;;8.70;5.63;;;10.70;99.90;;;;;;5088731;28;20031;-83
2023/01/11 02:19:38;;;;;;;10.40;6.20;;;10.70;99.90;;;;;;5091915;28;20114;-80
2023/01/11 02:22:25;;;;;;;13.75;6.60;;;10.80;99.90;;;;;;5089945;28;20102;-83
2023/01/11 02:25:00;;;;;;;8.80;6.18;;;10.80;99.90;;;;;;5087398;28;20021;-80
2023/01/11 02:27:47;;;;;;;10.85;6.70;;;10.80;99.90;;;;;;5087958;28;20028;-82
2023/01/11 02:30:31;;;;;;;11.20;6.85;;;10.80;99.90;;;;;;5090861;28;20036;-78
2023/01/11 02:33:17;;;;;;;11.25;6.18;;;10.80;99.90;;;;;;5092375;28;20070;-81
2023/01/11 02:36:14;;;;;;;13.45;6.10;;;10.90;99.90;;;;;;5093826;28;20020;-82
2023/01/11 02:39:16;;;;;;;13.18;6.90;;;10.90;99.90;;;;;;5086811;28;20028;-83
2023/01/11 02:45:00;;;;;;;13.95;6.70;;;10.90;99.90;;;;;;5090851;28;20081;-83
2023/01/11 02:47:50;;;;;;;11.45;6.90;;;10.90;99.90;;;;;;5092163;28;20099;-85
2023/01/11 02:50:28;;;;;;;10.88;6.30;;;10.90;99.90;;;;;;5109801;28;20103;-74
2023/01/11 02:53:20;;;;;;;15.55;6.53;;;10.90;99.90;;;;;;5106757;28;20040;-75
2023/01/11 02:55:50;;;;;;;12.30;7.28;;;11.00;99.90;;;;;;5104301;28;20031;-72
2023/01/11 02:58:20;;;;;;;9.93;6.47;;;11.00;99.90;;;;;;5110314;28;20031;-73
2023/01/11 03:00:46;;;;;;;12.57;6.30;;;11.00;99.90;;;;;;5110877;28;20110;-72
2023/01/11 03:03:20;;;;;;;17.50;7.60;;;11.00;99.90;;;;;;5111604;28;20330;-84
2023/01/11 03:06:06;;;;;;;12.95;6.05;;;11.00;99.90;;;;;;5114296;28;20043;-74
2023/01/11 03:08:44;;;;;;;14.73;5.80;;;11.00;99.90;;;;;;5095228;28;20063;-74
2023/01/11 03:14:51;;;;;;;9.05;4.15;;;11.10;99.90;;;;;;5112553;28;20031;-73
2023/01/11 03:17:32;;;;;;;18.55;3.83;;;11.10;99.90;;;;;;5105994;28;20314;-73
2023/01/11 03:20:19;;;;;;;11.98;3.97;;;11.10;99.90;;;;;;5093653;28;20107;-73
2023/01/11 03:23:00;;;;;;;10.93;3.65;;;11.10;99.90;;;;;;5105610;28;20027;-73
2023/01/11 03:25:38;;;;;;;17.95;3.78;;;11.10;99.90;;;;;;5106673;28;20114;-73
2023/01/11 03:28:36;;;;;;;12.30;3.50;;;11.10;99.90;;;;;;5105306;28;20035;-73
2023/01/11 03:31:04;;;;;;;25.33;3.83;;;11.20;99.90;;;;;;5109803;28;20080;-73
2023/01/11 03:33:42;;;;;;;12.05;3.17;;;11.20;99.90;;;;;;5113911;28;20020;-84
2023/01/11 03:36:08;;;;;;;16.05;2.80;;;11.20;99.90;;;;;;5112567;28;20478;-84
2023/01/11 03:38:55;;;;;;;12.50;2.80;;;11.20;99.90;;;;;;5109105;28;20032;-73
2023/01/11 03:41:28;;;;;;;17.27;2.72;;;11.20;99.90;;;;;;5096458;28;20059;-74
2023/01/11 03:43:58;;;;;;;13.30;2.88;;;11.10;99.90;;;;;;5110018;28;20395;-73
2023/01/11 03:46:33;;;;;;;16.60;3.30;;;11.20;99.90;;;;;;5115397;28;20096;-75
2023/01/11 03:49:14;;;;;;;12.80;2.45;;;11.20;99.90;;;;;;5113867;28;20655;-73
2023/01/11 03:51:45;;;;;;;9.43;2.65;;;11.20;99.90;;;;;;5114626;28;20050;-84
2023/01/11 03:54:15;;;;;;;17.73;3.22;;;11.20;99.90;;;;;;5114746;28;20043;-73
2023/01/11 03:57:03;;;;;;;13.32;3.65;;;11.20;99.90;;;;;;5098256;28;20047;-73
2023/01/11 03:59:29;;;;;;;20.75;2.90;;;11.20;99.90;;;;;;5098661;28;20090;-73
2023/01/11 04:01:56;;;;;;;16.57;2.67;;;11.20;99.90;;;;;;5114386;28;20465;-73
2023/01/11 04:04:22;;;;;;;;;;;11.20;99.90;;;;;;5108199;28;20026;-73
2023/01/11 04:06:48;;;;;;;14.38;2.65;;;11.10;99.90;;;;;;5114022;28;20244;-77
2023/01/11 04:09:14;;;;;;;17.58;3.20;;;11.20;99.90;;;;;;5117703;28;20035;-73
2023/01/11 04:11:40;;;;;;;19.67;3.17;;;11.10;99.90;;;;;;5104544;28;20310;-74
2023/01/11 04:14:05;;;;;;;16.30;2.60;;;11.10;99.90;;;;;;5116177;28;20012;-73
2023/01/11 04:16:31;;;;;;;23.37;2.73;;;11.20;99.90;;;;;;5100738;28;20038;-73
2023/01/11 04:18:57;;;;;;;17.23;3.03;;;11.10;99.90;;;;;;5114059;28;20505;-73
2023/01/11 04:21:23;;;;;;;32.13;3.53;;;11.10;99.90;;;;;;5110919;28;20314;-73
2023/01/11 04:23:49;;;;;;;16.90;3.13;;;11.10;99.90;;;;;;5115168;28;20020;-73
2023/01/11 04:26:16;;;;;;;18.80;2.60;;;11.10;99.90;;;;;;5115973;28;20152;-73
2023/01/11 04:28:43;;;;;;;25.67;3.38;;;11.10;99.90;;;;;;5111268;28;20326;-73
2023/01/11 04:31:09;;;;;;;21.05;2.85;;;11.10;99.90;;;;;;5109036;28;20066;-73
2023/01/11 04:33:35;;;;;;;15.53;3.03;;;11.10;99.90;;;;;;5112375;28;20078;-74
2023/01/11 04:36:06;;;;;;;15.53;3.13;;;11.20;99.90;;;;;;5097519;28;20469;-74
2023/01/11 04:38:32;;;;;;;20.70;3.63;;;11.10;99.90;;;;;;5115088;28;20027;-74
2023/01/11 04:43:42;;;;;;;22.73;2.58;;;11.20;99.90;;;;;;5114693;28;20462;-74
2023/01/11 04:46:09;;;;;;;15.77;2.93;;;11.20;99.90;;;;;;5111539;28;20417;-74
2023/01/11 04:48:38;;;;;;;19.00;2.95;;;11.20;99.90;;;;;;5114121;28;20311;-74
2023/01/11 04:51:08;;;;;;;20.00;2.40;;;11.20;99.90;;;;;;5095595;28;20040;-73
2023/01/11 04:53:34;;;;;;;18.63;3.38;;;11.20;99.90;;;;;;5115104;28;20102;-73
2023/01/11 04:56:01;;;;;;;17.98;2.97;;;11.20;99.90;;;;;;5110557;28;20072;-82
2023/01/11 04:58:28;;;;;;;21.40;3.30;;;11.20;99.90;;;;;;5098264;28;20417;-74
2023/01/11 05:00:54;;;;;;;13.68;2.83;;;11.10;99.90;;;;;;5111503;28;20028;-74
2023/01/11 05:03:20;;;;;;;24.20;3.23;;;11.10;99.90;;;;;;5112001;28;20038;-73
2023/01/11 05:05:57;;;;;;;22.42;3.10;;;11.10;99.90;;;;;;5096783;28;20347;-73
2023/01/11 05:08:23;;;;;;;;;;;11.00;99.90;;;;;;5114710;28;20149;-73
2023/01/11 05:10:57;;;;;;;20.92;2.58;;;11.00;99.90;;;;;;5115433;28;19911;-73
2023/01/11 05:13:42;;;;;;;17.13;2.72;;;11.00;99.90;;;;;;5112930;28;20036;-73
2023/01/11 05:16:09;;;;;;;17.15;2.60;;;10.90;99.90;;;;;;5106714;28;20321;-85
2023/01/11 05:18:37;;;;;;;;;;;10.90;99.90;;;;;;5115161;28;20027;-86
2023/01/11 05:21:05;;;;;;;16.50;2.72;;;10.80;99.90;;;;;;5115765;28;19908;-86
2023/01/11 05:23:32;;;;;;;12.40;2.40;;;10.80;99.90;;;;;;5095073;28;20120;-86
2023/01/11 05:25:58;;;;;;;16.13;3.08;;;10.80;99.90;;;;;;5085259;28;20080;-85
2023/01/11 05:28:23;;;;;;;17.93;2.93;;;10.70;99.90;;;;;;5098206;28;20130;-81
2023/01/11 05:30:52;;;;;;;18.70;3.03;;;10.70;99.90;;;;;;5094377;28;20050;-84
2023/01/11 05:33:19;;;;;;;17.33;2.25;;;10.70;99.90;;;;;;5095627;28;20370;-84
2023/01/11 05:35:45;;;;;;;11.95;2.45;;;10.70;99.90;;;;;;5097554;28;20414;-83
2023/01/11 05:38:11;;;;;;;10.05;2.10;;;10.60;99.90;;;;;;5116119;28;20073;-86
2023/01/11 05:40:37;;;;;;;8.97;2.10;;;10.60;99.90;;;;;;5115698;28;20030;-85
2023/01/11 05:43:03;;;;;;;22.13;2.72;;;10.50;99.90;;;;;;5112507;28;20027;-86
2023/01/11 05:45:30;;;;;;;23.40;4.35;;;10.50;99.90;;;;;;5116505;28;20036;-88
2023/01/11 05:47:59;;;;;;;13.35;1.88;;;10.50;99.90;;;;;;5112965;28;20031;-85
2023/01/11 05:50:25;;;;;;;19.73;2.85;;;10.50;99.90;;;;;;5111484;28;20089;-73
2023/01/11 05:52:51;;;;;;;15.13;2.63;;;10.40;99.90;;;;;;5113564;28;20322;-73
2023/01/11 05:55:18;;;;;;;18.60;2.42;;;10.40;99.90;;;;;;5110380;28;20024;-74
2023/01/11 05:57:45;;;;;;;15.52;2.20;;;10.40;99.90;;;;;;5102357;28;20043;-73
2023/01/11 06:00:12;;;;;;;9.45;2.42;;;10.30;99.90;;;;;;5113377;28;20035;-73
2023/01/11 06:02:38;;;;;;;14.18;2.58;;;10.40;99.90;;;;;;5109279;28;20024;-73
2023/01/11 06:05:05;;;;;;;17.95;2.35;;;10.40;99.90;;;;;;5091339;28;20303;-73
2023/01/11 06:07:31;;;;;;;15.65;2.60;;;10.30;99.90;;;;;;5092762;28;20036;-73
2023/01/11 06:09:56;;;;;;;20.70;2.87;;;10.30;99.90;;;;;;5112079;28;20032;-73
2023/01/11 06:12:22;;;;;;;22.37;2.90;;;10.30;99.90;;;;;;5111981;28;20024;-72
2023/01/11 06:14:48;;;;;;;19.67;2.77;;;10.30;99.90;;;;;;5112531;28;20019;-73
2023/01/11 06:17:14;;;;;;;13.13;1.93;;;10.30;99.90;;;;;;5115236;28;20031;-73
2023/01/11 06:19:40;;;;;;;23.00;3.47;;;10.20;99.90;;;;;;5099716;28;20225;-72
2023/01/11 06:22:06;;;;;;;15.60;2.90;;;10.20;99.90;;;;;;5113964;28;20599;-73
2023/01/11 06:24:31;;;;;;;14.10;2.07;;;10.20;99.90;;;;;;5104676;28;20099;-87
2023/01/11 06:26:57;;;;;;;15.98;3.05;;;10.20;99.90;;;;;;5114918;28;20023;-73
2023/01/11 06:29:23;;;;;;;22.77;2.23;;;10.20;99.90;;;;;;5094257;28;20318;-73
2023/01/11 06:31:49;;;;;;;17.10;2.40;;;10.10;99.90;;;;;;5113440;28;20446;-73
2023/01/11 06:34:15;;;;;;;14.03;2.53;;;10.10;99.90;;;;;;5096108;28;20028;-73
2023/01/11 06:36:41;;;;;;;17.07;3.17;;;10.10;99.90;;;;;;5115017;28;20026;-74
2023/01/11 06:39:06;;;;;;;11.27;2.63;;;10.00;99.90;;;;;;5109576;28;20030;-84
2023/01/11 06:41:32;;;;;;;17.87;2.50;;;10.00;99.90;;;;;;5107686;28;20043;-72
2023/01/11 06:43:58;;;;;;;12.63;2.00;;;10.00;99.90;;;;;;5108560;28;20027;-73
2023/01/11 06:46:24;;;;;;;19.10;1.90;;;10.00;99.90;;;;;;5106254;28;20417;-72
2023/01/11 06:48:50;;;;;;;18.83;3.33;;;10.00;99.90;;;;;;5088262;28;20073;-73
2023/01/11 06:51:16;;;;;;;17.70;2.27;;;9.90;99.90;;;;;;5093314;28;20422;-73
2023/01/11 06:53:43;;;;;;;20.17;2.80;;;9.90;99.90;;;;;;5113722;28;20409;-73
2023/01/11 06:56:13;;;;;;;;;;;9.90;99.90;;;;;;5114317;28;20019;-72
2023/01/11 06:58:39;;;;;;;6.35;1.77;;;9.90;99.90;;;;;;5113344;28;19917;-73
2023/01/11 07:01:05;;;;;;;14.73;2.17;;;9.90;99.90;;;;;;5111463;28;20024;-73
2023/01/11 07:03:31;;;;;;;18.03;3.63;;;9.90;99.90;;;;;;5114156;28;20053;-72
2023/01/11 07:05:57;;;;;;;12.63;2.47;;;9.80;99.90;;;;;;5108352;28;20272;-72
2023/01/11 07:08:24;;;;;;;20.90;3.10;;;9.80;99.90;;;;;;5112211;28;20441;-73
2023/01/11 07:10:51;;;;;;;21.17;2.65;;;9.80;99.90;;;;;;5103369;28;20071;-73
2023/01/11 07:13:17;;;;;;;13.27;2.35;;;9.70;99.90;;;;;;5088759;28;20175;-72
2023/01/11 07:15:44;;;;;;;15.68;2.03;;;9.60;99.90;;;;;;5091781;28;20032;-73
2023/01/11 07:18:10;;;;;;;18.52;2.35;;;9.60;99.90;;;;;;5094684;28;20019;-84
2023/01/11 07:20:37;;;;;;;11.98;2.05;;;9.50;99.90;;;;;;5113541;28;20043;-73
2023/01/11 07:23:03;;;;;;;26.02;2.65;;;9.40;99.90;;;;;;5106094;28;20040;-73
2023/01/11 07:25:29;;;;;;;8.10;2.10;;;9.40;99.90;;;;;;5104003;28;20432;-73
2023/01/11 07:27:57;;;;;;;10.77;1.90;;;9.40;99.90;;;;;;5098650;28;20686;-73
2023/01/11 07:30:24;;;;;;;11.57;2.13;;;9.30;99.90;;;;;;5110209;28;20295;-73
2023/01/11 07:32:50;;;;;;;12.00;2.53;;;9.30;99.90;;;;;;5091620;28;20283;-73
2023/01/11 07:35:16;;;;;;;28.43;3.43;;;9.30;99.90;;;;;;5114282;28;20060;-74
2023/01/11 07:37:44;;;;;;;18.73;2.27;;;9.20;99.90;;;;;;5103078;28;20031;-73
2023/01/11 07:40:11;;;;;;;18.65;3.33;;;9.10;99.90;;;;;;5093365;28;20020;-73
2023/01/11 07:45:21;;;;;;;9.30;2.33;;;9.00;99.90;;;;;;5110444;28;20035;-72
2023/01/11 07:47:51;;;;;;;13.93;1.87;;;9.00;99.90;;;;;;5090240;28;20023;-73
2023/01/11 07:50:17;;;;;;;11.50;1.63;;;8.90;99.90;;;;;;5108962;28;20310;-72
2023/01/11 07:52:48;;;;;;;15.73;2.28;;;8.90;99.90;;;;;;5108553;28;20019;-73
2023/01/11 07:55:15;;;;;;;15.52;2.90;;;8.90;99.90;;;;;;5109697;28;20384;-76
2023/01/11 07:57:41;;;;;;;25.15;2.95;;;8.90;99.90;;;;;;5109852;28;20694;-72
2023/01/11 08:00:08;;;;;;;15.65;3.40;;;8.80;99.90;;;;;;5105984;28;20170;-81
2023/01/11 08:02:34;;;;;;;14.13;2.20;;;8.80;99.90;;;;;;5109836;28;20042;-72
2023/01/11 08:05:00;;;;;;;15.70;2.13;;;8.80;99.90;;;;;;5100892;28;20111;-72
2023/01/11 08:07:26;;;;;;;20.40;2.80;;;8.80;99.90;;;;;;5100278;28;20519;-73
2023/01/11 08:09:52;;;;;;;16.33;2.63;;;8.80;99.90;;;;;;5093076;28;20038;-73
2023/01/11 08:15:02;;;;;;;27.45;2.75;;;8.80;99.90;;;;;;5109712;28;20023;-72
2023/01/11 08:17:28;;;;;;;14.60;2.53;;;8.80;99.90;;;;;;5087472;28;20338;-73
2023/01/11 08:19:54;;;;;;;12.70;2.80;;;8.70;99.90;;;;;;5111121;28;20088;-72
2023/01/11 08:22:21;;;;;;;16.85;3.03;;;8.70;99.90;;;;;;5109122;28;20031;-73
2023/01/11 08:24:47;;;;;;;17.55;2.28;;;8.60;99.90;;;;;;5110638;28;20036;-73
2023/01/11 08:27:12;;;;;;;17.10;2.80;;;8.50;99.90;;;;;;5116211;28;20088;-82
2023/01/11 08:29:39;;;;;;;17.93;2.43;;;8.50;99.90;;;;;;5110686;28;20042;-73
2023/01/11 08:32:05;;;;;;;13.38;2.13;;;8.40;99.90;;;;;;5093839;28;21080;-73
2023/01/11 08:34:33;;;;;;;20.77;1.80;;;8.30;99.90;;;;;;5113664;28;20032;-73
2023/01/11 08:37:00;;;;;;;15.38;3.08;;;8.20;99.90;;;;;;5103813;28;20030;-83
2023/01/11 08:39:29;;;;;;;18.02;3.05;;;8.10;99.90;;;;;;5115555;28;20035;-73
2023/01/11 08:41:56;;;;;;;19.33;3.15;;;8.10;99.90;;;;;;5112298;28;20410;-73
2023/01/11 08:44:22;;;;;;;;;;;8.10;99.90;;;;;;5106652;28;20019;-76
2023/01/11 08:46:48;;;;;;;29.92;3.15;;;8.00;99.90;;;;;;5113504;28;19907;-73
2023/01/11 08:49:14;;;;;;;29.37;2.83;;;8.10;99.90;;;;;;5110606;28;20117;-73
2023/01/11 08:51:41;;;;;;;17.20;2.73;;;8.10;99.90;;;;;;5116627;28;20448;-73
2023/01/11 08:54:11;;;;;;;29.13;2.85;;;8.10;99.90;;;;;;5108427;28;20313;-73
2023/01/11 08:56:37;;;;;;;25.50;2.92;;;8.20;99.90;;;;;;5115427;28;20055;-73
2023/01/11 08:59:04;;;;;;;8.45;2.30;;;8.20;99.90;;;;;;5111044;28;20019;-72
2023/01/11 09:01:32;;;;;;;18.92;3.05;;;8.20;99.90;;;;;;5096798;28;20322;-73
2023/01/11 09:03:58;;;;;;;22.90;2.63;;;8.30;99.90;;;;;;5095892;28;20088;-73
2023/01/11 09:06:24;;;;;;;27.40;2.67;;;8.30;99.90;;;;;;5094835;28;20118;-73
2023/01/11 09:08:50;;;;;;;23.93;3.63;;;8.40;99.90;;;;;;5089820;28;20032;-73
2023/01/11 09:14:01;;;;;;;19.92;3.33;;;8.40;99.90;;;;;;5111110;28;20035;-73
2023/01/11 09:16:27;;;;;;;23.87;2.50;;;8.50;99.90;;;;;;5116364;28;20024;-83
2023/01/11 09:18:54;;;;;;;18.23;2.13;;;8.50;99.90;;;;;;5111053;28;20393;-72
2023/01/11 09:21:20;;;;;;;38.92;3.47;;;8.50;99.90;;;;;;5116628;28;20027;-73
2023/01/11 09:23:46;;;;;;;18.02;2.70;;;8.50;99.90;;;;;;5110681;28;20023;-74
2023/01/11 09:26:13;;;;;;;18.17;2.63;;;8.50;99.90;;;;;;5112529;28;20031;-83
2023/01/11 09:28:39;;;;;;;32.20;2.97;;;8.60;99.90;;;;;;5108426;28;20028;-73
2023/01/11 09:31:05;;;;;;;16.67;2.45;;;8.60;99.90;;;;;;5108169;28;20066;-72
2023/01/11 09:33:33;;;;;;;17.70;3.03;;;8.60;99.90;;;;;;5102420;28;20024;-73
2023/01/11 09:36:01;;;;;;;25.02;3.38;;;8.70;99.90;;;;;;5113245;28;20027;-73
2023/01/11 09:38:29;;;;;;;20.35;2.35;;;8.70;99.90;;;;;;5110293;28;20031;-73
2023/01/11 09:41:32;;;;;;;18.98;2.53;;;8.70;99.90;;;;;;5113744;28;20038;-72
2023/01/11 09:44:20;;;;;;;12.43;3.13;;;8.80;99.90;;;;;;5107767;28;20182;-72
2023/01/11 09:46:55;;;;;;;21.30;2.92;;;8.80;99.90;;;;;;5105701;28;20019;-73
2023/01/11 09:49:30;;;;;;;21.80;2.90;;;8.80;99.90;;;;;;5108056;28;20044;-73
2023/01/11 09:52:05;;;;;;;18.17;2.28;;;8.90;99.90;;;;;;5104195;28;20059;-73
2023/01/11 09:54:32;;;;;;;21.15;2.20;;;8.90;99.90;;;;;;5094562;28;20028;-73
2023/01/11 09:57:21;;;;;;;;;;;8.90;99.90;;;;;;5110696;28;20360;-84
2023/01/11 10:00:11;;;;;;;25.42;2.63;;;8.90;99.90;;;;;;5105095;28;20020;-73
2023/01/11 10:02:58;;;;;;;19.23;2.65;;;9.00;99.90;;;;;;5106807;28;20351;-81
2023/01/11 10:05:50;;;;;;;14.45;3.05;;;9.00;99.90;;;;;;5082658;28;20042;-73
2023/01/11 10:08:38;;;;;;;18.92;2.67;;;9.00;99.90;;;;;;5105369;28;20035;-72
2023/01/11 10:11:30;;;;;;;15.90;3.75;;;9.10;99.90;;;;;;5109134;28;20028;-72
2023/01/11 10:14:15;;;;;;;24.63;3.90;;;9.10;99.90;;;;;;5111814;28;20019;-74
2023/01/11 10:17:03;;;;;;;16.23;2.80;;;9.10;99.90;;;;;;5098874;28;20039;-73
2023/01/11 10:19:38;;;;;;;13.38;2.42;;;9.20;99.90;;;;;;5066279;28;20326;-73
2023/01/11 10:22:16;;;;;;;14.93;2.38;;;9.20;99.90;;;;;;5111897;28;20363;-73
2023/01/11 10:24:58;;;;;;;23.13;2.72;;;9.20;99.90;;;;;;5092777;28;20031;-73
2023/01/11 10:27:33;;;;;;;23.75;2.72;;;9.30;99.90;;;;;;5106611;28;20031;-73
2023/01/11 10:30:22;;;;;;;15.82;2.58;;;9.30;99.90;;;;;;5105541;28;20055;-72
2023/01/11 10:33:00;;;;;;;14.35;1.85;;;9.40;99.90;;;;;;5095646;28;20016;-73
2023/01/11 10:35:44;;;;;;;18.13;2.88;;;9.40;99.90;;;;;;5111999;28;20058;-72
2023/01/11 10:41:32;;;;;;;18.70;2.22;;;9.60;99.90;;;;;;5101098;28;20068;-72
2023/01/11 10:44:10;;;;;;;23.33;2.90;;;9.50;99.90;;;;;;5105229;28;20032;-73
2023/01/11 10:46:46;;;;;;;30.60;2.55;;;9.60;99.90;;;;;;5111450;28;20313;-73
2023/01/11 10:49:25;;;;;;;19.98;3.28;;;9.70;99.90;;;;;;5089274;28;20083;-73
2023/01/11 10:51:54;;;;;;;23.02;2.88;;;9.80;99.90;;;;;;5096322;28;20672;-73
2023/01/11 10:54:30;;;;;;;23.42;2.40;;;9.90;99.90;;;;;;5101413;28;20031;-73
2023/01/11 10:57:16;;;;;;;21.15;3.20;;;9.90;99.90;;;;;;5093602;28;20099;-81
2023/01/11 11:00:10;;;;;;;14.00;2.67;;;10.00;99.90;;;;;;5091269;28;20075;-84
2023/01/11 11:02:48;;;;;;;16.70;2.53;;;10.10;99.90;;;;;;5084619;28;20028;-73
2023/01/11 11:05:36;;;;;;;24.67;2.22;;;10.20;99.90;;;;;;5089581;28;20027;-73
2023/01/11 11:08:16;;;;;;;10.52;2.25;;;10.20;99.90;;;;;;5105851;28;20039;-74
2023/01/11 11:11:02;;;;;;;18.90;2.72;;;10.20;99.90;;;;;;5094410;28;20110;-73
2023/01/11 11:13:44;;;;;;;19.45;1.80;;;10.20;99.90;;;;;;5110134;28;20453;-73
2023/01/11 11:16:22;;;;;;;12.13;2.47;;;10.10;99.90;;;;;;5091064;28;20036;-87
2023/01/11 11:18:57;;;;;;;10.75;2.22;;;10.00;99.90;;;;;;5106426;28;20508;-73
2023/01/11 11:21:35;;;;;;;20.17;2.85;;;9.90;99.90;;;;;;5096264;28;20046;-73
2023/01/11 11:24:14;;;;;;;23.52;3.17;;;9.90;99.90;;;;;;5108576;28;20016;-73
2023/01/11 11:26:46;;;;;;;17.33;2.90;;;10.10;99.90;;;;;;5113717;28;20050;-72
2023/01/11 11:29:22;;;;;;;20.55;3.10;;;10.20;99.90;;;;;;5113725;28;20454;-82
2023/01/11 11:31:50;;;;;;;24.02;2.30;;;10.20;99.90;;;;;;5109541;28;20433;-73
2023/01/11 11:34:20;;;;;;;13.50;2.30;;;10.20;99.90;;;;;;5105099;28;20030;-73
2023/01/11 11:36:52;;;;;;;18.63;2.53;;;10.10;99.90;;;;;;5106664;28;20209;-73
2023/01/11 11:39:28;;;;;;;23.38;2.40;;;10.10;99.90;;;;;;5103017;28;20024;-73
2023/01/11 11:42:16;;;;;;;10.65;2.55;;;10.00;99.90;;;;;;5108888;28;20322;-73
2023/01/11 11:44:43;;;;;;;16.23;2.10;;;10.10;99.90;;;;;;5090393;28;20059;-74
2023/01/11 11:47:17;;;;;;;22.35;3.03;;;10.30;99.90;;;;;;5109756;28;20429;-86
2023/01/11 11:49:46;;;;;;;14.60;2.50;;;10.50;99.90;;;;;;5108496;28;20047;-73
2023/01/11 11:52:16;;;;;;;14.82;2.55;;;10.60;99.90;;;;;;5096596;28;20028;-73
2023/01/11 11:55:05;;;;;;;22.25;3.15;;;10.70;99.90;;;;;;5112104;28;20032;-74
2023/01/11 11:57:43;;;;;;;13.90;2.33;;;10.70;99.90;;;;;;5101569;28;20099;-73
2023/01/11 12:00:31;;;;;;;14.18;2.08;;;10.90;99.90;;;;;;5099209;28;20303;-86
2023/01/11 12:03:10;;;;;;;16.38;2.28;;;11.00;99.90;;;;;;5108346;28;20119;-72
2023/01/11 12:05:37;;;;;;;15.90;2.00;;;11.00;99.90;;;;;;5095735;28;20039;-72
2023/01/11 12:08:04;;;;;;;22.13;2.72;;;10.90;99.90;;;;;;5095699;28;20073;-74
2023/01/11 12:10:32;;;;;;;18.95;2.50;;;10.90;99.90;;;;;;5091926;28;20092;-73
2023/01/11 12:13:01;;;;;;;8.45;1.92;;;10.90;99.90;;;;;;5107341;28;20318;-73
2023/01/11 12:15:29;;;;;;;14.68;2.33;;;10.80;99.90;;;;;;5110920;28;20074;-73
2023/01/11 12:18:30;;;;;;;26.08;3.25;;;10.80;99.90;;;;;;5106273;28;20020;-72
2023/01/11 12:21:07;;;;;;;17.40;1.92;;;10.70;99.90;;;;;;5114007;28;20080;-73
2023/01/11 12:23:34;;;;;;;10.02;1.70;;;10.60;99.90;;;;;;5113086;28;20020;-74
2023/01/11 12:26:21;;;;;;;17.50;2.50;;;10.50;99.90;;;;;;5114504;28;20032;-73
2023/01/11 12:29:12;;;;;;;15.13;2.03;;;10.50;99.90;;;;;;5095473;28;20028;-73
2023/01/11 12:31:52;;;;;;;17.92;1.92;;;10.50;99.90;;;;;;5095503;28;20100;-73
2023/01/11 12:34:34;;;;;;;14.75;2.40;;;10.40;99.90;;;;;;5098035;28;20114;-73
2023/01/11 12:37:31;;;;;;;15.18;2.53;;;10.40;99.90;;;;;;5111803;28;20028;-73
2023/01/11 12:40:04;;;;;;;15.00;2.03;;;10.40;99.90;;;;;;5110863;28;20023;-72
2023/01/11 12:43:04;;;;;;;25.30;2.63;;;10.40;99.90;;;;;;5113371;28;20051;-74
2023/01/11 12:45:43;;;;;;;17.25;2.78;;;10.40;99.90;;;;;;5113054;28;20024;-74
2023/01/11 12:48:28;;;;;;;17.70;2.63;;;10.40;99.90;;;;;;5080919;28;20066;-73
2023/01/11 12:51:39;;;;;;;17.00;2.15;;;10.30;99.90;;;;;;5072701;28;20470;-73
2023/01/11 12:54:43;;;;;;;17.45;2.60;;;10.20;99.90;;;;;;5070879;28;20347;-73
2023/01/11 12:57:29;;;;;;;18.17;2.50;;;10.10;99.90;;;;;;5070644;28;20056;-74
2023/01/11 13:00:11;;;;;;;16.13;1.67;;;10.10;99.90;;;;;;5059828;28;20427;-73
2023/01/11 13:02:59;;;;;;;11.10;3.05;;;10.10;99.90;;;;;;5070687;28;20466;-75
2023/01/11 13:05:54;;;;;;;27.75;3.17;;;10.20;99.90;;;;;;5058097;28;20017;-73
2023/01/11 13:08:42;;;;;;;13.77;3.08;;;10.20;99.90;;;;;;5066452;28;20040;-71
2023/01/11 13:11:42;;;;;;;19.13;2.45;;;10.30;99.90;;;;;;5068429;28;20033;-83
2023/01/11 13:14:28;;;;;;;14.20;2.28;;;10.30;99.90;;;;;;5059730;28;20017;-86
2023/01/11 13:17:01;;;;;;;;;;;10.30;99.90;;;;;;5068158;28;20097;-72
2023/01/11 13:19:39;;;;;;;16.17;2.83;;;10.30;99.90;;;;;;5074212;28;19908;-74
2023/01/11 13:22:17;;;;;;;11.43;2.40;;;10.30;99.90;;;;;;5072839;28;20028;-74
2023/01/11 13:24:48;;;;;;;14.57;2.85;;;10.20;99.90;;;;;;5074692;28;20029;-73
2023/01/11 13:27:23;;;;;;;22.20;2.47;;;10.20;99.90;;;;;;5071100;28;20037;-73
2023/01/11 13:29:59;;;;;;;18.27;2.28;;;10.20;99.90;;;;;;5071150;28;20030;-72
2023/01/11 13:32:39;;;;;;;19.73;3.20;;;10.20;99.90;;;;;;5075288;28;20039;-74
2023/01/11 13:35:12;;;;;;;20.20;2.28;;;10.20;99.90;;;;;;5068479;28;20044;-73
2023/01/11 13:38:18;;;;;;;10.63;2.92;;;10.20;99.90;;;;;;5072325;28;20437;-73